メインページ
METAR-TAF:

METAR-TAF

空港 :

チェンナイ国際空港

チェンナイ, インド

緯度: 13-00N, 経度: 080-11E, 海抜: 10m

現時点の気象観測

当レポートは28分前の19:00(UTC)に作成
南西の風 7kt
気温 26°C
湿度 89%
気圧 1006 hPa
視程: 4000m
高度1800ftの雲は散在している
高度2500ftの雲はほとんどない, 積乱雲.
高度10000ftの千切れ雲あり

METAR: VOMM 181900Z 22007KT 4000 BR SCT018 FEW025CB BKN100 26/24 Q1006 NOSIG

時間: 00:58 (19:28 UTC)

予報

当レポートは2時間28分前の17:00(UTC)に作成
予報は18日の 18時(UTC)から 19日の 24時(UTC)まで有効
西/北西の風 10kt
視程: 6000m
高度2000ftの雲は散在している
高度10000ftの千切れ雲あり
18日の 18時(UTC)から 18日の 24時(UTC)まで一時的に
視程: 4000m
高度1500ftの雲は散在している
高度2500ftの雲はほとんどない, 積乱雲.
高度8000ftの千切れ雲あり
18日の 21時(UTC)から 18日の 22時(UTC)まで徐々に
視程: 5000m
19日の 03時(UTC)から 19日の 04時(UTC)まで徐々に
視程: 6000m
19日の 09時(UTC)から 19日の 15時(UTC)まで一時的に
視程: 4000m
高度1500ftの雲は散在している
高度2500ftの雲はほとんどない, 積乱雲.
高度8000ftの千切れ雲あり

TAF: VOMM 181700Z 1818/1924 29010KT 6000 SCT020 BKN100 TEMPO 1818/1824 4000 -TSRA/RA SCT015 FEW025CB BKN080 BECMG 1821/1822 5000 BR BECMG 1903/1904 6000 TEMPO 1909/1915 4000 -TSRA/RA SCT015 FEW025CB BKN080

4,000以上の空港の気象観測と天気予報(METAR報とTAF報)

利用可能な観測所は地図上に黄色い丸と赤い丸で示す。

丸の上にカーソルを重ねると観測所名を参照できる。

次にクリックすると気象観測と天気予報を参照できる。

マップの切り替え:黒色「×」印の緑ボタンをクリックして拡大、「-」印の緑ボタンをクリックして縮小、緑色の三角印をクリックして隣りの地図に切り替え


METAR-TAF: